Slupsk, Poland

5:31 AM CET on November 28, 2014 (GMT +0100)
IPOMORSK9 | Change Station
CLOSE
Current Station
Personal Weather Station
Location: Ustka, pomorskie
Elevation: 23 ft
Nearby Weather Stations

Elev 23 ft 54.59 °N, 16.86 °E | Updated 6 seconds ago

Light Freezing Fog
Freezing Fog
33.3 °F
Feels Like 33 °F
N
1.3
Wind Variable Wind from SE
Gusts 6.0 mph

Today
High -- | Low -- °F
--% Chance of Precip.
Yesterday
High -- | Low -- °F
Precip. -- in
7:44 AM 3:34 PM
Waxing Crescent, 36% visible
Pressure 30.24 in
Visibility 0.6 miles
Clouds Overcast 100 ft
Windchill 33 °F
Dew Point 31 °F
Humidity 92%
Rainfall 0.00 in
Snow Depth Not available.
UV 0.0 out of 12
Pollen Not available.
Air Quality Not available.
Flu Activity Not available.
METAR EPGD 280400Z 12009KT 0900 R29/1600D FZFG OVC001 M03/M03 Q1024

More Conditions Fewer Conditions

Pressure 30.24 in
Visibility 0.6 miles
Clouds Overcast 100 ft
Windchill 33 °F
Dew Point 31 °F
Humidity 92%
Rainfall 0.00 in
Snow Depth Not available.
UV 0.0 out of 12
Pollen Not available.
Air Quality Not available.
Flu Activity Not available.
METAR EPGD 280400Z 12009KT 0900 R29/1600D FZFG OVC001 M03/M03 Q1024

More Conditions Fewer Conditions

10-Day Weather Forecast

Almanac

Astronomy

Nov. 28, 2014 Rise Set
Actual Time
Civil Twilight
Nautical Twilight
Astronomical Twilight
Moon
Length of Visible Light
Length of Day
Tomorrow will be .
, % of the Moon is Illuminated

Today's Extremes

Country Highs Country Lows

Community

WunderPhotos

Upload Photos

1,774,188 photos uploaded!

WunderBlogs® & News

Nearby

Air Quality

  Air Quality AQ Index Pollutant
Not available.

Snow Depth

Station Depth Elevation

Earthquake Activity

City Distance Mag. Time & Date
Minimum magnitude displayed is 2.5.

Coastal Water Temperatures

Place Temperature

Nearby Weather Stations